Time;durP1;ratioP1;P1;durP2;ratioP2;P2;SDS_P1;SDS_P2;PMS_P1;PMS_P2;Temp;Humidity;BMP_temperature;BMP_pressure;BME280_temperature;BME280_humidity;BME280_pressure;Samples;Min_cycle;Max_cycle;Signal;HPM_P1;HPM_P2
2023/04/11 00:00:12;;;;;;;0.57;0.57;;;;;;;;;;4963045;28;20062;-75
2023/04/11 00:02:39;;;;;;;0.00;0.00;;;;;;;;;;4964551;28;20030;-75
2023/04/11 00:05:06;;;;;;;0.95;0.95;;;5.30;99.90;;;;;;4971134;28;20027;-74
2023/04/11 00:07:32;;;;;;;0.10;0.10;;;5.20;99.90;;;;;;4953473;28;20037;-74
2023/04/11 00:09:59;;;;;;;54.95;52.85;;;;;;;;;;4965978;28;20042;-74
2023/04/11 00:12:28;;;;;;;0.08;0.08;;;5.30;99.90;;;;;;4962042;28;20437;-74
2023/04/11 00:14:54;;;;;;;0.10;0.10;;;;;;;;;;4962608;28;20027;-74
2023/04/11 00:17:22;;;;;;;0.20;0.20;;;;;;;;;;4962101;28;20114;-74
2023/04/11 00:19:48;;;;;;;1.20;1.20;;;5.30;99.90;;;;;;4963027;28;20054;-74
2023/04/11 00:22:17;;;;;;;0.00;0.00;;;5.20;99.90;;;;;;4960972;28;20101;-74
2023/04/11 00:24:43;;;;;;;0.13;0.13;;;5.20;99.90;;;;;;4947503;28;20039;-74
2023/04/11 00:27:09;;;;;;;0.10;0.10;;;5.20;99.90;;;;;;4961092;28;20034;-74
2023/04/11 00:29:35;;;;;;;0.00;0.00;;;5.20;99.90;;;;;;4961916;28;20305;-75
2023/04/11 00:32:02;;;;;;;0.00;0.00;;;5.30;99.90;;;;;;4965983;28;20023;-74
2023/04/11 00:34:28;;;;;;;0.00;0.00;;;5.30;99.90;;;;;;4966664;28;20502;-74
2023/04/11 00:36:54;;;;;;;0.00;0.00;;;;;;;;;;4965565;28;20626;-74
2023/04/11 00:39:21;;;;;;;0.00;0.00;;;;;;;;;;4965997;28;20062;-74
2023/04/11 00:41:47;;;;;;;2.25;2.15;;;5.30;99.90;;;;;;4966527;28;20023;-74
2023/04/11 00:44:13;;;;;;;0.10;0.10;;;5.30;99.90;;;;;;4965991;28;20386;-74
2023/04/11 00:46:44;;;;;;;0.20;0.20;;;5.30;99.90;;;;;;4975299;28;20034;-74
2023/04/11 00:49:10;;;;;;;0.00;0.00;;;5.30;99.90;;;;;;4968598;28;20259;-74
2023/04/11 00:51:38;;;;;;;0.75;0.75;;;5.30;99.90;;;;;;4966591;28;20139;-74
2023/04/11 00:54:08;;;;;;;0.00;0.00;;;;;;;;;;4972638;28;20134;-74
2023/04/11 00:56:34;;;;;;;1.00;0.95;;;5.30;99.90;;;;;;4972197;28;20030;-75
2023/04/11 00:58:59;;;;;;;1.95;1.85;;;5.70;99.90;;;;;;4976026;28;20111;-75
2023/04/11 01:01:28;;;;;;;0.00;0.00;;;;;;;;;;4976156;28;20078;-75
2023/04/11 01:03:54;;;;;;;0.00;0.00;;;5.40;99.90;;;;;;4970987;28;20027;-74
2023/04/11 01:06:22;;;;;;;1.38;1.38;;;5.40;99.90;;;;;;4966886;28;20034;-75
2023/04/11 01:08:49;;;;;;;1.98;1.95;;;5.40;99.90;;;;;;4967847;28;20455;-74
2023/04/11 01:11:18;;;;;;;0.20;0.20;;;5.40;99.90;;;;;;4949386;28;20481;-76
2023/04/11 01:13:45;;;;;;;0.40;0.40;;;5.40;99.90;;;;;;4977950;28;20127;-76
2023/04/11 01:16:13;;;;;;;1.95;1.85;;;5.40;99.90;;;;;;4969148;28;20122;-74
2023/04/11 01:18:43;;;;;;;0.28;0.28;;;;;;;;;;4964752;28;20046;-75
2023/04/11 01:21:09;;;;;;;3.13;3.03;;;;;;;;;;4967568;28;20019;-74
2023/04/11 01:23:35;;;;;;;0.10;0.10;;;5.40;99.90;;;;;;4964715;28;20035;-74
2023/04/11 01:26:01;;;;;;;3.38;3.25;;;5.40;99.90;;;;;;4967231;28;20424;-74
2023/04/11 01:28:26;;;;;;;0.00;0.00;;;5.50;99.90;;;;;;4966850;28;20030;-74
2023/04/11 01:30:52;;;;;;;0.52;0.52;;;5.50;99.90;;;;;;4965596;28;20152;-75
2023/04/11 01:33:19;;;;;;;0.30;0.30;;;;;;;;;;4963946;28;20027;-74
2023/04/11 01:35:47;;;;;;;0.35;0.35;;;5.50;99.90;;;;;;4955561;28;20498;-74
2023/04/11 01:38:13;;;;;;;0.00;0.00;;;5.50;99.90;;;;;;4973398;28;20325;-74
2023/04/11 01:40:40;;;;;;;10.23;9.07;;;5.50;99.90;;;;;;4964487;28;20042;-75
2023/04/11 01:43:08;;;;;;;0.47;0.47;;;5.50;99.90;;;;;;4964614;28;20524;-74
2023/04/11 01:45:34;;;;;;;14.32;13.65;;;5.50;99.90;;;;;;4963566;28;20517;-75
2023/04/11 01:48:05;;;;;;;1.13;1.10;;;5.40;99.90;;;;;;4966301;28;20030;-74
2023/04/11 01:50:32;;;;;;;0.00;0.00;;;5.40;99.90;;;;;;4976651;28;20173;-75
2023/04/11 01:52:57;;;;;;;0.00;0.00;;;5.40;99.90;;;;;;4970621;28;20287;-75
2023/04/11 01:55:26;;;;;;;0.00;0.00;;;5.40;99.90;;;;;;4964242;28;20035;-75
2023/04/11 01:57:52;;;;;;;0.20;0.20;;;5.30;99.90;;;;;;4950050;28;20125;-75
2023/04/11 02:00:18;;;;;;;1.77;1.67;;;5.40;99.90;;;;;;4965180;28;20169;-75
2023/04/11 02:02:44;;;;;;;0.00;0.00;;;5.50;99.90;;;;;;4964092;28;20030;-75
2023/04/11 02:05:10;;;;;;;0.03;0.03;;;5.40;99.90;;;;;;4964004;28;20248;-78
2023/04/11 02:07:36;;;;;;;0.57;0.57;;;5.40;99.90;;;;;;4963590;28;20026;-76
2023/04/11 02:10:04;;;;;;;0.10;0.10;;;5.40;99.90;;;;;;4963522;28;20228;-75
2023/04/11 02:12:30;;;;;;;0.10;0.10;;;5.40;99.90;;;;;;4964236;28;20093;-75
2023/04/11 02:14:56;;;;;;;11.18;10.32;;;5.40;99.90;;;;;;4964069;28;20022;-75
2023/04/11 02:17:25;;;;;;;5.40;5.15;;;5.40;99.90;;;;;;4964065;28;20229;-74
2023/04/11 02:19:54;;;;;;;0.00;0.00;;;5.40;99.90;;;;;;4963941;28;20047;-76
2023/04/11 02:22:20;;;;;;;0.10;0.10;;;5.40;99.90;;;;;;4966121;28;20062;-75
2023/04/11 02:24:46;;;;;;;0.10;0.10;;;5.40;99.90;;;;;;4965253;28;20039;-74
2023/04/11 02:27:12;;;;;;;0.10;0.10;;;5.40;99.90;;;;;;4965015;28;20030;-74
2023/04/11 02:29:38;;;;;;;0.05;0.05;;;;;;;;;;4965578;28;20046;-75
2023/04/11 02:32:04;;;;;;;0.10;0.10;;;5.40;99.90;;;;;;4964638;28;20556;-74
2023/04/11 02:34:30;;;;;;;0.00;0.00;;;5.50;99.90;;;;;;4964798;28;20498;-74
2023/04/11 02:36:56;;;;;;;3.55;3.42;;;5.50;99.90;;;;;;4964699;28;20101;-74
2023/04/11 02:39:23;;;;;;;0.50;0.50;;;5.50;99.90;;;;;;4964409;28;20043;-75
2023/04/11 02:41:49;;;;;;;0.55;0.55;;;;;;;;;;4965260;28;20049;-74
2023/04/11 02:44:16;;;;;;;0.10;0.10;;;;;;;;;;4947976;28;20022;-74
2023/04/11 02:46:42;;;;;;;0.40;0.40;;;;;;;;;;4966403;28;20305;-74
2023/04/11 02:49:08;;;;;;;0.05;0.05;;;;;;;;;;4947387;28;20317;-74
2023/04/11 02:51:34;;;;;;;0.10;0.10;;;;;;;;;;4964692;28;20038;-74
2023/04/11 02:54:00;;;;;;;0.00;0.00;;;5.20;99.90;;;;;;4963560;28;20050;-74
2023/04/11 02:56:29;;;;;;;1.05;1.05;;;5.20;99.90;;;;;;4964326;28;20038;-74
2023/04/11 02:58:55;;;;;;;0.10;0.10;;;5.20;99.90;;;;;;4966533;28;20038;-75
2023/04/11 03:01:23;;;;;;;0.08;0.08;;;5.30;99.90;;;;;;4970092;28;20041;-74
2023/04/11 03:03:49;;;;;;;0.00;0.00;;;5.30;99.90;;;;;;4964560;28;20038;-74
2023/04/11 03:06:15;;;;;;;0.20;0.20;;;5.30;99.90;;;;;;4965493;28;20053;-74
2023/04/11 03:08:41;;;;;;;0.03;0.03;;;5.30;99.90;;;;;;4962567;28;20124;-75
2023/04/11 03:11:06;;;;;;;0.10;0.10;;;5.20;99.90;;;;;;4944624;28;20030;-74
2023/04/11 03:13:32;;;;;;;0.10;0.10;;;5.20;99.90;;;;;;4962833;28;20413;-74
2023/04/11 03:15:58;;;;;;;5.18;4.75;;;5.30;99.90;;;;;;4947047;28;20469;-74
2023/04/11 03:18:24;;;;;;;12.80;11.77;;;5.30;99.90;;;;;;4946010;28;20070;-74
2023/04/11 03:20:51;;;;;;;0.00;0.00;;;5.30;99.90;;;;;;4947886;28;20508;-74
2023/04/11 03:23:17;;;;;;;4.78;3.35;;;5.30;99.90;;;;;;4966724;28;20094;-75
2023/04/11 03:25:46;;;;;;;0.10;0.10;;;5.40;99.90;;;;;;4964900;28;20402;-74
2023/04/11 03:28:13;;;;;;;0.10;0.10;;;5.40;99.90;;;;;;4963445;28;20061;-75
2023/04/11 03:30:41;;;;;;;0.08;0.08;;;5.40;99.90;;;;;;4962364;28;20045;-74
2023/04/11 03:33:07;;;;;;;0.00;0.00;;;6.00;99.90;;;;;;4965265;28;20023;-75
2023/04/11 03:35:34;;;;;;;0.10;0.10;;;;;;;;;;4966516;28;20505;-73
2023/04/11 03:37:59;;;;;;;10.13;9.23;;;5.40;99.90;;;;;;4966621;28;20082;-74
2023/04/11 03:40:25;;;;;;;35.35;33.22;;;5.40;99.90;;;;;;4966748;28;20030;-74
2023/04/11 03:42:52;;;;;;;0.10;0.10;;;5.40;99.90;;;;;;4968921;28;20555;-75
2023/04/11 03:45:18;;;;;;;0.10;0.10;;;5.40;99.90;;;;;;4967985;28;20101;-74
2023/04/11 03:47:43;;;;;;;0.10;0.10;;;5.90;99.90;;;;;;4966960;28;20081;-74
2023/04/11 03:50:10;;;;;;;0.00;0.00;;;5.50;99.90;;;;;;4966711;28;20027;-74
2023/04/11 03:52:39;;;;;;;1.00;1.00;;;5.50;99.90;;;;;;4966958;28;20150;-74
2023/04/11 03:55:05;;;;;;;0.38;0.38;;;5.80;99.90;;;;;;4964869;28;20042;-74
2023/04/11 03:57:31;;;;;;;0.05;0.05;;;5.40;99.90;;;;;;4964315;28;20078;-74
2023/04/11 03:59:57;;;;;;;0.10;0.10;;;5.50;99.90;;;;;;4964943;28;20031;-75
2023/04/11 04:02:24;;;;;;;0.10;0.10;;;5.50;99.90;;;;;;4967451;28;20428;-74
2023/04/11 04:04:54;;;;;;;0.63;0.63;;;5.00;99.90;;;;;;4974311;28;20026;-74
2023/04/11 04:07:22;;;;;;;0.47;0.47;;;6.00;99.90;;;;;;4962815;28;20049;-74
2023/04/11 04:09:48;;;;;;;2.60;2.42;;;5.50;99.90;;;;;;4964241;28;20023;-74
2023/04/11 04:12:16;;;;;;;0.10;0.10;;;;;;;;;;4964112;28;20425;-74
2023/04/11 04:14:42;;;;;;;0.00;0.00;;;;;;;;;;4964148;28;20324;-74
2023/04/11 04:17:09;;;;;;;0.10;0.10;;;;;;;;;;4962832;28;20026;-74
2023/04/11 04:19:34;;;;;;;0.05;0.05;;;5.40;99.90;;;;;;4963888;28;20046;-74
2023/04/11 04:22:00;;;;;;;0.30;0.30;;;5.90;99.90;;;;;;4966403;28;20348;-74
2023/04/11 04:24:26;;;;;;;0.50;0.50;;;5.60;99.90;;;;;;4965988;28;20033;-75
2023/04/11 04:26:52;;;;;;;0.08;0.08;;;5.40;99.90;;;;;;4966271;28;20060;-74
2023/04/11 04:29:18;;;;;;;0.85;0.85;;;5.30;99.90;;;;;;4964776;28;20074;-74
2023/04/11 04:31:51;;;;;;;0.17;0.17;;;5.40;99.90;;;;;;4946062;28;20477;-75
2023/04/11 04:34:20;;;;;;;2.03;1.98;;;4.80;99.90;;;;;;4961805;28;20022;-74
2023/04/11 04:36:46;;;;;;;0.52;0.52;;;5.60;99.90;;;;;;4943324;28;20406;-73
2023/04/11 04:39:17;;;;;;;0.20;0.20;;;5.40;99.90;;;;;;4962778;28;20081;-74
2023/04/11 04:41:56;;;;;;;0.20;0.20;;;5.40;99.90;;;;;;4964032;28;20026;-75
2023/04/11 04:44:23;;;;;;;0.88;0.88;;;5.30;99.90;;;;;;4982200;28;20055;-75
2023/04/11 04:47:01;;;;;;;0.68;0.68;;;5.30;99.90;;;;;;4967126;28;20038;-74
2023/04/11 04:49:26;;;;;;;2.83;2.72;;;5.40;99.90;;;;;;4964242;28;20097;-74
2023/04/11 04:51:52;;;;;;;0.95;0.95;;;5.40;99.90;;;;;;4952086;28;20490;-74
2023/04/11 04:54:18;;;;;;;14.05;13.25;;;5.40;99.90;;;;;;4966790;28;20091;-74
2023/04/11 04:56:46;;;;;;;0.20;0.20;;;5.40;99.90;;;;;;4966388;28;20031;-74
2023/04/11 04:59:14;;;;;;;15.80;14.52;;;5.40;99.90;;;;;;4970113;28;20062;-76
2023/04/11 05:01:41;;;;;;;0.28;0.28;;;6.40;99.90;;;;;;4964855;28;20271;-74
2023/04/11 05:04:07;;;;;;;0.40;0.40;;;;;;;;;;4969676;28;20027;-74
2023/04/11 05:06:33;;;;;;;0.10;0.10;;;5.30;99.90;;;;;;4970208;28;20110;-74
2023/04/11 05:09:00;;;;;;;0.00;0.00;;;5.30;99.90;;;;;;4973033;28;20325;-74
2023/04/11 05:11:27;;;;;;;2.00;1.92;;;5.30;99.90;;;;;;4967353;28;20078;-75
2023/04/11 05:13:53;;;;;;;0.00;0.00;;;4.80;99.90;;;;;;4962488;28;20328;-74
2023/04/11 05:16:20;;;;;;;3.75;3.63;;;;;;;;;;4964541;28;20027;-74
2023/04/11 05:18:46;;;;;;;0.00;0.00;;;;;;;;;;4954446;28;20145;-74
2023/04/11 05:21:13;;;;;;;11.30;10.43;;;5.30;99.90;;;;;;4971203;28;20089;-74
2023/04/11 05:23:40;;;;;;;0.10;0.10;;;5.40;99.90;;;;;;4966160;28;20026;-74
2023/04/11 05:26:07;;;;;;;0.10;0.10;;;5.70;99.90;;;;;;4966303;28;20037;-74
2023/04/11 05:28:33;;;;;;;4.65;4.43;;;5.70;99.90;;;;;;4968265;28;20058;-74
2023/04/11 05:31:01;;;;;;;3.60;3.40;;;5.50;99.90;;;;;;4967451;28;20041;-74
2023/04/11 05:33:27;;;;;;;0.45;0.45;;;5.60;99.90;;;;;;4968097;28;20026;-74
2023/04/11 05:35:54;;;;;;;0.93;0.93;;;;;;;;;;4964772;28;20089;-73
2023/04/11 05:38:20;;;;;;;0.43;0.43;;;;;;;;;;4964971;28;20047;-74
2023/04/11 05:40:46;;;;;;;0.00;0.00;;;;;;;;;;4965212;28;20029;-74
2023/04/11 05:43:14;;;;;;;0.40;0.40;;;;;;;;;;4947395;28;20026;-76
2023/04/11 05:45:40;;;;;;;0.43;0.43;;;5.90;99.90;;;;;;4966649;28;20026;-74
2023/04/11 05:48:07;;;;;;;22.10;21.23;;;6.00;99.90;;;;;;4965971;28;20038;-74
2023/04/11 05:50:33;;;;;;;0.10;0.10;;;5.90;99.90;;;;;;4948125;28;20042;-74
2023/04/11 05:52:59;;;;;;;0.10;0.10;;;6.00;99.90;;;;;;4964581;28;20252;-74
2023/04/11 05:55:25;;;;;;;1.65;1.65;;;5.90;99.90;;;;;;4965061;28;20704;-74
2023/04/11 05:57:51;;;;;;;82.15;16.08;;;5.90;99.90;;;;;;4965852;28;20055;-74
2023/04/11 06:00:17;;;;;;;0.10;0.10;;;6.10;99.90;;;;;;4967700;28;20042;-74
2023/04/11 06:02:43;;;;;;;0.00;0.00;;;6.10;99.90;;;;;;4967120;28;20022;-74
2023/04/11 06:05:10;;;;;;;0.10;0.10;;;6.20;99.90;;;;;;4964717;28;20110;-74
2023/04/11 06:07:40;;;;;;;1.80;1.73;;;6.10;99.90;;;;;;4964930;28;20415;-74
2023/04/11 06:10:10;;;;;;;0.00;0.00;;;6.30;99.90;;;;;;4949859;28;20324;-74
2023/04/11 06:12:39;;;;;;;0.22;0.22;;;6.10;99.90;;;;;;4958412;28;20055;-74
2023/04/11 06:15:05;;;;;;;7.55;7.03;;;6.20;99.90;;;;;;4969227;28;20262;-75
2023/04/11 06:17:32;;;;;;;0.10;0.10;;;6.30;99.90;;;;;;4969978;28;20034;-75
2023/04/11 06:19:58;;;;;;;0.00;0.00;;;6.40;99.90;;;;;;4971386;28;20537;-73
2023/04/11 06:22:23;;;;;;;0.00;0.00;;;6.50;99.90;;;;;;4964311;28;20432;-74
2023/04/11 06:24:50;;;;;;;0.10;0.10;;;6.60;99.90;;;;;;4973826;28;20054;-73
2023/04/11 06:27:16;;;;;;;0.50;0.50;;;6.60;99.90;;;;;;4963369;28;20051;-73
2023/04/11 06:29:45;;;;;;;0.10;0.10;;;6.70;99.90;;;;;;4945230;28;20514;-73
2023/04/11 06:32:11;;;;;;;0.05;0.05;;;7.70;99.90;;;;;;4964484;28;20031;-73
2023/04/11 06:34:40;;;;;;;3.55;3.42;;;6.90;99.90;;;;;;4947567;28;20449;-74
2023/04/11 06:37:08;;;;;;;0.00;0.00;;;7.10;99.90;;;;;;4962427;28;20539;-73
2023/04/11 06:39:34;;;;;;;0.10;0.10;;;7.20;99.90;;;;;;4963074;28;20136;-73
2023/04/11 06:42:01;;;;;;;0.10;0.10;;;7.60;99.90;;;;;;4945868;28;20031;-73
2023/04/11 06:44:27;;;;;;;0.20;0.20;;;7.60;99.90;;;;;;4963917;28;20054;-74
2023/04/11 06:46:54;;;;;;;0.10;0.10;;;;;;;;;;4964100;28;20462;-74
2023/04/11 06:49:20;;;;;;;0.65;0.65;;;7.40;99.90;;;;;;4946411;28;20027;-73
2023/04/11 06:51:49;;;;;;;0.10;0.10;;;7.80;99.90;;;;;;4970014;28;20049;-74
2023/04/11 06:54:16;;;;;;;0.30;0.30;;;7.50;99.90;;;;;;4945176;28;20605;-74
2023/04/11 06:56:43;;;;;;;0.30;0.30;;;;;;;;;;4965966;28;20053;-73
2023/04/11 06:59:09;;;;;;;1.05;1.05;;;;;;;;;;4961813;28;20027;-74
2023/04/11 07:01:36;;;;;;;0.10;0.10;;;;;;;;;;4965692;28;20026;-79
2023/04/11 07:04:02;;;;;;;0.00;0.00;;;7.60;99.90;;;;;;4958427;28;20043;-78
2023/04/11 07:06:29;;;;;;;0.10;0.10;;;7.60;99.90;;;;;;4962209;28;20106;-74
2023/04/11 07:08:55;;;;;;;0.93;0.93;;;;;;;;;;4962692;28;20746;-75
2023/04/11 07:11:22;;;;;;;0.00;0.00;;;;;;;;;;4962006;28;20035;-74
2023/04/11 07:13:49;;;;;;;0.10;0.10;;;7.50;99.90;;;;;;4962786;28;20025;-74
2023/04/11 07:16:16;;;;;;;2.30;2.17;;;7.60;99.90;;;;;;4966607;28;20034;-75
2023/04/11 07:18:42;;;;;;;2.53;2.38;;;7.80;99.90;;;;;;4956622;28;20130;-74
2023/04/11 07:21:12;;;;;;;8.38;8.00;;;8.00;99.90;;;;;;4963572;28;20099;-74
2023/04/11 07:23:38;;;;;;;1.02;1.00;;;8.30;99.90;;;;;;4962161;28;20030;-75
2023/04/11 07:26:07;;;;;;;15.82;15.02;;;8.40;99.90;;;;;;4961622;28;20022;-74
2023/04/11 07:28:33;;;;;;;0.10;0.10;;;8.60;99.90;;;;;;4961743;28;20026;-74
2023/04/11 07:30:58;;;;;;;0.15;0.15;;;8.70;99.90;;;;;;4964558;28;20030;-75
2023/04/11 07:33:24;;;;;;;1.33;1.33;;;7.20;99.90;;;;;;4968319;28;20038;-74
2023/04/11 07:35:50;;;;;;;2.97;2.88;;;8.90;99.90;;;;;;4962720;28;20023;-75
2023/04/11 07:38:25;;;;;;;2.15;2.05;;;9.00;99.90;;;;;;4964120;28;20042;-76
2023/04/11 07:40:52;;;;;;;8.52;8.18;;;9.20;99.90;;;;;;4960336;28;20039;-74
2023/04/11 07:43:18;;;;;;;7.95;7.47;;;9.20;99.90;;;;;;4961637;28;20089;-74
2023/04/11 07:45:45;;;;;;;0.40;0.40;;;9.10;99.90;;;;;;4961450;28;20035;-74
2023/04/11 07:48:10;;;;;;;5.63;5.35;;;9.10;99.90;;;;;;4963361;28;20686;-74
2023/04/11 07:50:36;;;;;;;0.10;0.10;;;9.30;99.90;;;;;;4961117;28;20023;-74
2023/04/11 07:53:02;;;;;;;1.17;1.17;;;9.40;99.90;;;;;;4960543;28;20575;-74
2023/04/11 07:55:29;;;;;;;5.97;5.55;;;9.40;99.90;;;;;;4955283;28;20206;-75
2023/04/11 07:57:55;;;;;;;6.50;6.20;;;9.60;99.90;;;;;;4967739;28;20025;-74
2023/04/11 08:00:22;;;;;;;7.05;6.70;;;10.10;99.90;;;;;;4961722;28;20031;-74
2023/04/11 08:02:48;;;;;;;0.40;0.40;;;11.00;99.90;;;;;;4961927;28;20021;-74
2023/04/11 08:05:14;;;;;;;0.20;0.20;;;10.80;99.90;;;;;;4966942;28;20026;-74
2023/04/11 08:07:41;;;;;;;1.58;1.48;;;11.00;99.90;;;;;;4961569;28;20018;-74
2023/04/11 08:10:07;;;;;;;5.53;5.25;;;11.00;99.90;;;;;;4960054;28;20025;-74
2023/04/11 08:12:33;;;;;;;0.10;0.10;;;10.80;99.90;;;;;;4962751;28;20019;-74
2023/04/11 08:14:59;;;;;;;0.17;0.17;;;10.90;99.90;;;;;;4963353;28;20041;-73
2023/04/11 08:17:27;;;;;;;0.10;0.10;;;11.30;99.90;;;;;;4960075;28;20018;-74
2023/04/11 08:19:54;;;;;;;0.10;0.10;;;11.10;99.90;;;;;;4960643;28;20214;-74
2023/04/11 08:22:20;;;;;;;69.57;44.80;;;11.20;99.90;;;;;;4962519;28;20050;-74
2023/04/11 08:24:46;;;;;;;0.20;0.20;;;11.10;99.90;;;;;;4959921;28;20061;-74
2023/04/11 08:27:11;;;;;;;0.30;0.30;;;11.20;99.90;;;;;;4961367;28;20031;-73
2023/04/11 08:29:37;;;;;;;4.10;3.88;;;11.20;99.90;;;;;;4960532;28;20023;-75
2023/04/11 08:32:03;;;;;;;0.10;0.10;;;11.10;99.90;;;;;;4959905;28;20050;-74
2023/04/11 08:34:32;;;;;;;0.20;0.20;;;10.90;99.90;;;;;;4952869;28;20011;-74
2023/04/11 08:36:59;;;;;;;0.20;0.20;;;11.20;99.90;;;;;;4959412;28;20686;-73
2023/04/11 08:39:25;;;;;;;0.15;0.15;;;11.50;99.90;;;;;;4959498;28;20027;-78
2023/04/11 08:41:54;;;;;;;0.10;0.10;;;11.60;99.90;;;;;;4962036;28;20070;-75
2023/04/11 08:44:21;;;;;;;0.22;0.22;;;11.60;99.90;;;;;;4972953;28;20066;-74
2023/04/11 08:46:47;;;;;;;0.40;0.40;;;11.60;99.90;;;;;;4960062;28;20077;-74
2023/04/11 08:49:12;;;;;;;0.10;0.10;;;11.40;99.90;;;;;;4960495;28;20047;-74
2023/04/11 08:51:42;;;;;;;0.38;0.38;;;11.50;99.90;;;;;;4961021;28;20062;-74
2023/04/11 08:54:08;;;;;;;0.10;0.10;;;11.30;99.90;;;;;;4965766;28;20590;-75
2023/04/11 08:56:34;;;;;;;1.52;1.48;;;11.40;99.90;;;;;;4964242;28;20022;-74
2023/04/11 08:59:01;;;;;;;0.93;0.93;;;11.70;99.90;;;;;;4963647;28;20439;-74
2023/04/11 09:01:33;;;;;;;0.73;0.73;;;11.90;99.90;;;;;;4962883;28;20037;-74
2023/04/11 09:04:01;;;;;;;1.15;1.15;;;11.90;99.90;;;;;;4962760;28;20081;-78
2023/04/11 09:06:32;;;;;;;0.20;0.20;;;11.70;99.90;;;;;;4962891;28;20034;-75
2023/04/11 09:08:59;;;;;;;0.77;0.77;;;12.20;99.90;;;;;;4962611;28;20190;-79
2023/04/11 09:11:25;;;;;;;1.90;1.83;;;12.40;99.90;;;;;;4967454;28;20500;-86
2023/04/11 09:14:10;;;;;;;2.05;1.95;;;12.30;99.90;;;;;;4965991;28;20130;-72
2023/04/11 09:16:52;;;;;;;0.20;0.20;;;12.60;99.90;;;;;;4969115;28;20035;-74
2023/04/11 09:19:25;;;;;;;2.15;2.05;;;12.60;99.90;;;;;;4966597;28;20047;-74
2023/04/11 09:21:51;;;;;;;0.20;0.20;;;12.70;99.90;;;;;;4962446;28;20035;-74
2023/04/11 09:24:17;;;;;;;0.60;0.60;;;13.00;99.90;;;;;;4962099;28;20022;-75
2023/04/11 09:26:43;;;;;;;0.20;0.20;;;13.10;99.90;;;;;;4962061;28;20019;-78
2023/04/11 09:29:09;;;;;;;0.65;0.65;;;12.90;99.90;;;;;;4965330;28;20113;-74
2023/04/11 09:31:43;;;;;;;0.20;0.20;;;13.10;99.90;;;;;;4965977;28;20053;-75
2023/04/11 09:34:12;;;;;;;0.20;0.20;;;13.20;99.90;;;;;;4962670;28;20034;-75
2023/04/11 09:36:38;;;;;;;2.65;2.55;;;13.10;99.90;;;;;;4961699;28;20023;-75
2023/04/11 09:39:19;;;;;;;1.45;1.40;;;13.00;99.90;;;;;;4960513;28;20041;-74
2023/04/11 09:41:45;;;;;;;0.10;0.10;;;13.20;99.90;;;;;;4961986;28;20058;-77
2023/04/11 09:44:11;;;;;;;0.17;0.17;;;13.30;99.90;;;;;;4961771;28;20669;-75
2023/04/11 09:46:55;;;;;;;0.10;0.10;;;12.90;99.90;;;;;;4961485;28;20248;-80
2023/04/11 09:49:23;;;;;;;1.77;1.77;;;13.30;99.90;;;;;;4959526;28;20164;-76
2023/04/11 09:51:51;;;;;;;1.30;1.27;;;13.50;99.90;;;;;;4961756;28;20110;-75
2023/04/11 09:54:19;;;;;;;0.65;0.65;;;13.50;99.90;;;;;;4961643;28;20606;-78
2023/04/11 09:56:45;;;;;;;2.65;2.20;;;13.60;99.60;;;;;;4960765;28;20019;-74
2023/04/11 09:59:13;;;;;;;0.10;0.10;;;13.80;99.90;;;;;;4958129;28;20026;-74
2023/04/11 10:01:40;;;;;;;1.67;1.58;;;13.70;99.00;;;;;;4960995;28;20573;-74
2023/04/11 10:04:06;;;;;;;0.20;0.20;;;13.70;99.70;;;;;;4959105;28;20014;-75
2023/04/11 10:06:46;;;;;;;0.28;0.28;;;13.70;99.10;;;;;;4960996;28;20081;-74
2023/04/11 10:09:13;;;;;;;0.10;0.10;;;14.00;99.90;;;;;;4960799;28;20560;-74
2023/04/11 10:11:41;;;;;;;2.47;2.30;;;13.90;98.20;;;;;;4960805;28;20019;-74
2023/04/11 10:14:07;;;;;;;2.83;2.65;;;14.60;99.70;;;;;;4957457;28;20578;-77
2023/04/11 10:16:33;;;;;;;0.20;0.20;;;14.20;99.60;;;;;;4960998;28;20022;-74
2023/04/11 10:19:03;;;;;;;0.20;0.20;;;14.60;98.20;;;;;;4960181;28;20043;-74
2023/04/11 10:21:29;;;;;;;0.10;0.10;;;14.90;96.80;;;;;;4951959;28;20030;-75
2023/04/11 10:24:19;;;;;;;0.90;0.90;;;14.90;96.00;;;;;;4959147;28;20185;-74
2023/04/11 10:26:48;;;;;;;1.30;1.20;;;15.30;95.80;;;;;;4960382;28;20029;-76
2023/04/11 10:29:31;;;;;;;0.32;0.32;;;15.40;92.50;;;;;;4960016;28;20038;-75
2023/04/11 10:32:16;;;;;;;0.30;0.30;;;15.20;94.40;;;;;;4955632;28;20690;-74
2023/04/11 10:34:53;;;;;;;0.20;0.20;;;15.30;93.60;;;;;;4960427;28;20673;-78
2023/04/11 10:37:35;;;;;;;1.55;1.48;;;15.30;93.30;;;;;;4960296;28;20046;-74
2023/04/11 10:40:19;;;;;;;0.85;0.85;;;15.10;94.60;;;;;;4959600;28;20035;-74
2023/04/11 10:42:45;;;;;;;;;;;15.10;94.60;;;;;;4960737;28;20023;-75
2023/04/11 10:45:23;;;;;;;0.10;0.10;;;15.10;92.40;;;;;;4959874;28;19906;-74
2023/04/11 10:48:06;;;;;;;1.80;1.70;;;15.50;91.70;;;;;;4959820;28;20031;-74
2023/04/11 10:50:37;;;;;;;0.57;0.45;;;15.60;90.30;;;;;;4960260;28;20023;-77
2023/04/11 10:53:32;;;;;;;0.32;0.32;;;15.80;94.10;;;;;;4960047;28;20035;-74
2023/04/11 10:55:59;;;;;;;0.10;0.10;;;16.10;90.00;;;;;;4960228;28;20030;-76
2023/04/11 10:58:38;;;;;;;0.45;0.45;;;16.30;91.00;;;;;;4950792;28;20030;-73
2023/04/11 11:01:14;;;;;;;1.40;1.33;;;16.20;86.40;;;;;;4960183;28;20552;-73
2023/04/11 11:03:49;;;;;;;1.40;1.33;;;16.20;85.60;;;;;;4959408;28;20014;-82
2023/04/11 11:06:16;;;;;;;0.10;0.10;;;16.20;83.70;;;;;;4959840;28;20033;-75
2023/04/11 11:08:41;;;;;;;5.03;4.85;;;16.30;93.00;;;;;;4959578;28;20232;-73
2023/04/11 11:11:09;;;;;;;0.98;0.98;;;16.50;82.40;;;;;;4959602;28;20494;-73
2023/04/11 11:13:43;;;;;;;0.20;0.20;;;17.00;79.30;;;;;;4959315;28;20031;-74
2023/04/11 11:16:17;;;;;;;6.40;3.63;;;17.20;78.60;;;;;;4956539;28;20752;-73
2023/04/11 11:18:52;;;;;;;;;;;15.30;75.20;;;;;;4953298;28;20054;-74
2023/04/11 11:21:21;;;;;;;0.25;0.25;;;19.90;79.40;;;;;;4959161;28;20024;-78
2023/04/11 11:23:58;;;;;;;0.10;0.10;;;17.90;74.60;;;;;;4959325;28;20045;-74
2023/04/11 11:26:35;;;;;;;4.82;4.43;;;18.30;75.30;;;;;;4959410;28;20011;-79
2023/04/11 11:29:02;;;;;;;0.10;0.10;;;17.80;70.40;;;;;;4959076;28;20106;-74
2023/04/11 11:31:45;;;;;;;0.10;0.10;;;17.00;69.60;;;;;;4959156;28;20667;-73
2023/04/11 11:34:11;;;;;;;0.20;0.20;;;15.80;68.50;;;;;;4959219;28;20488;-75
2023/04/11 11:36:43;;;;;;;0.17;0.17;;;18.50;70.00;;;;;;4958811;28;20109;-73
2023/04/11 11:39:10;;;;;;;1.75;1.65;;;21.60;68.10;;;;;;4959109;28;20030;-73
2023/04/11 11:41:40;;;;;;;0.63;0.63;;;18.60;67.90;;;;;;4958821;28;20102;-74
2023/04/11 11:44:06;;;;;;;0.10;0.10;;;18.80;67.40;;;;;;4958743;28;20029;-76
2023/04/11 11:46:34;;;;;;;0.38;0.38;;;19.00;64.60;;;;;;4959215;28;20631;-77
2023/04/11 11:49:06;;;;;;;1.08;1.02;;;19.00;63.20;;;;;;4958477;28;20094;-73
2023/04/11 11:51:45;;;;;;;0.60;0.60;;;19.20;61.10;;;;;;4958558;28;20030;-73
2023/04/11 11:54:11;;;;;;;1.52;1.42;;;;;;;;;;4955577;28;20019;-73
2023/04/11 11:56:38;;;;;;;0.10;0.10;;;19.30;59.60;;;;;;4958485;28;20174;-74
2023/04/11 11:59:04;;;;;;;0.10;0.10;;;17.70;60.10;;;;;;4958388;28;20039;-79
2023/04/11 12:01:35;;;;;;;1.27;1.17;;;19.30;60.90;;;;;;4958659;28;20015;-73
2023/04/11 12:04:04;;;;;;;0.10;0.10;;;19.60;59.50;;;;;;4959244;28;20593;-77
2023/04/11 12:06:31;;;;;;;3.70;3.42;;;19.60;59.90;;;;;;4959044;28;20719;-78
2023/04/11 12:09:15;;;;;;;0.10;0.10;;;19.40;59.40;;;;;;4958920;28;20228;-78
2023/04/11 12:11:43;;;;;;;0.25;0.25;;;19.50;60.50;;;;;;4958861;28;20054;-74
2023/04/11 12:14:09;;;;;;;0.20;0.20;;;19.40;59.70;;;;;;4958683;28;20506;-75
2023/04/11 12:16:38;;;;;;;1.30;1.20;;;19.80;60.30;;;;;;4958568;28;20019;-79
2023/04/11 12:19:04;;;;;;;0.10;0.10;;;20.00;57.90;;;;;;4955068;28;20039;-73
2023/04/11 12:21:30;;;;;;;1.15;1.05;;;19.80;57.80;;;;;;4959504;28;20102;-75
2023/04/11 12:23:56;;;;;;;0.10;0.10;;;19.30;59.10;;;;;;4959045;28;20019;-74
2023/04/11 12:26:24;;;;;;;0.55;0.55;;;;;;;;;;4957947;28;20109;-75
2023/04/11 12:28:50;;;;;;;0.75;0.65;;;;;;;;;;4958332;28;20011;-75
2023/04/11 12:31:16;;;;;;;0.45;0.45;;;19.40;56.20;;;;;;4958018;28;20090;-74
2023/04/11 12:33:43;;;;;;;0.10;0.10;;;19.30;57.20;;;;;;4958394;28;20684;-74
2023/04/11 12:36:09;;;;;;;0.20;0.20;;;19.50;57.10;;;;;;4954727;28;20023;-74
2023/04/11 12:38:36;;;;;;;1.40;1.40;;;20.20;59.20;;;;;;4950510;28;20038;-73
2023/04/11 12:41:02;;;;;;;0.10;0.10;;;20.20;58.30;;;;;;4958426;28;20023;-73
2023/04/11 12:43:28;;;;;;;1.75;0.73;;;19.70;59.10;;;;;;4958235;28;20571;-77
2023/04/11 12:45:54;;;;;;;0.10;0.10;;;20.60;59.70;;;;;;4958141;28;20675;-73
2023/04/11 12:48:20;;;;;;;1.33;1.23;;;19.70;57.80;;;;;;4958189;28;20017;-76
2023/04/11 12:50:46;;;;;;;0.70;0.70;;;19.80;57.80;;;;;;4957942;28;20019;-77
2023/04/11 12:53:12;;;;;;;0.10;0.10;;;20.10;57.80;;;;;;4957731;28;20027;-73
2023/04/11 12:55:37;;;;;;;0.65;0.65;;;19.90;57.30;;;;;;4957870;28;20238;-74
2023/04/11 12:58:03;;;;;;;0.93;0.93;;;20.10;57.90;;;;;;4958154;28;20079;-76
2023/04/11 13:00:29;;;;;;;0.10;0.10;;;20.10;57.70;;;;;;4957579;28;20113;-75
2023/04/11 13:02:57;;;;;;;0.10;0.10;;;20.30;56.20;;;;;;4957771;28;20639;-72
2023/04/11 13:05:23;;;;;;;1.23;0.77;;;20.50;55.60;;;;;;4957745;28;20245;-72
2023/04/11 13:07:49;;;;;;;0.10;0.10;;;20.70;55.80;;;;;;4958387;28;20655;-72